Midway, Alabama
Current Conditions -  °F | °C
As of 3:58 AM on Thursday 27 Nov 2014 (Local Time) from KEUF Reporting Station
Clear Clear  
Wind Chill: 42°   Ceiling: Unl
Heat Index: 45°   Visibility: 10mi
Dew Point: 33°   Wind: 6mph
Humidity: 63%   Direction: 310°NW
Pressure: 30.2"   Gusts: NA
Location:  32.08°N, 85.52°W
Report Text: KEUF 270958Z AUTO 31005KT 10SM CLR 07/01 A3020 RMK AO2 SLP227 T00720006
Loading
Personal Weather Stations






























Interactive Weather Map New forecast layout! Learn more

10-Day Weather Forecast

Advertisements
Track Severe Weather on mobile